sensor_id;sensor_type;location;lat;lon;timestamp;P1;durP1;ratioP1;P2;durP2;ratioP2
51336;SDS011;37421;51.176;17.196;2022-11-15T00:01:34;0.75;;;0.30;;
51336;SDS011;37421;51.176;17.196;2022-11-15T00:04:04;0.53;;;0.40;;
51336;SDS011;37421;51.176;17.196;2022-11-15T00:06:32;0.13;;;0.13;;
51336;SDS011;37421;51.176;17.196;2022-11-15T00:08:58;0.20;;;0.20;;
51336;SDS011;37421;51.176;17.196;2022-11-15T00:11:28;0.20;;;0.17;;
51336;SDS011;37421;51.176;17.196;2022-11-15T00:13:55;0.55;;;0.20;;
51336;SDS011;37421;51.176;17.196;2022-11-15T00:16:24;0.65;;;0.30;;
51336;SDS011;37421;51.176;17.196;2022-11-15T00:18:53;0.52;;;0.38;;
51336;SDS011;37421;51.176;17.196;2022-11-15T00:21:22;1.48;;;0.40;;
51336;SDS011;37421;51.176;17.196;2022-11-15T00:23:48;0.50;;;0.30;;
51336;SDS011;37421;51.176;17.196;2022-11-15T00:26:14;0.52;;;0.22;;
51336;SDS011;37421;51.176;17.196;2022-11-15T00:28:41;0.82;;;0.30;;
51336;SDS011;37421;51.176;17.196;2022-11-15T00:31:08;0.10;;;0.10;;
51336;SDS011;37421;51.176;17.196;2022-11-15T00:33:37;0.17;;;0.13;;
51336;SDS011;37421;51.176;17.196;2022-11-15T00:36:04;0.32;;;0.17;;
51336;SDS011;37421;51.176;17.196;2022-11-15T00:38:35;0.38;;;0.17;;
51336;SDS011;37421;51.176;17.196;2022-11-15T00:41:07;0.65;;;0.20;;
51336;SDS011;37421;51.176;17.196;2022-11-15T00:43:36;0.65;;;0.20;;
51336;SDS011;37421;51.176;17.196;2022-11-15T00:46:05;1.92;;;0.30;;
51336;SDS011;37421;51.176;17.196;2022-11-15T00:48:33;0.75;;;0.20;;
51336;SDS011;37421;51.176;17.196;2022-11-15T00:51:02;0.88;;;0.30;;
51336;SDS011;37421;51.176;17.196;2022-11-15T00:53:28;1.00;;;0.30;;
51336;SDS011;37421;51.176;17.196;2022-11-15T00:55:54;0.55;;;0.20;;
51336;SDS011;37421;51.176;17.196;2022-11-15T00:58:24;0.20;;;0.20;;
51336;SDS011;37421;51.176;17.196;2022-11-15T01:00:50;2.25;;;0.22;;
51336;SDS011;37421;51.176;17.196;2022-11-15T01:03:18;0.20;;;0.10;;
51336;SDS011;37421;51.176;17.196;2022-11-15T01:05:44;0.73;;;0.40;;
51336;SDS011;37421;51.176;17.196;2022-11-15T01:08:14;0.20;;;0.10;;
51336;SDS011;37421;51.176;17.196;2022-11-15T01:10:43;0.30;;;0.20;;
51336;SDS011;37421;51.176;17.196;2022-11-15T01:13:12;0.52;;;0.38;;
51336;SDS011;37421;51.176;17.196;2022-11-15T01:15:42;0.30;;;0.15;;
51336;SDS011;37421;51.176;17.196;2022-11-15T01:18:08;0.20;;;0.17;;
51336;SDS011;37421;51.176;17.196;2022-11-15T01:20:38;0.43;;;0.20;;
51336;SDS011;37421;51.176;17.196;2022-11-15T01:23:06;0.43;;;0.30;;
51336;SDS011;37421;51.176;17.196;2022-11-15T01:25:32;1.08;;;0.28;;
51336;SDS011;37421;51.176;17.196;2022-11-15T01:27:58;0.38;;;0.10;;
51336;SDS011;37421;51.176;17.196;2022-11-15T01:30:24;0.20;;;0.20;;
51336;SDS011;37421;51.176;17.196;2022-11-15T01:32:50;1.00;;;0.45;;
51336;SDS011;37421;51.176;17.196;2022-11-15T01:35:16;0.20;;;0.13;;
51336;SDS011;37421;51.176;17.196;2022-11-15T01:37:45;0.47;;;0.20;;
51336;SDS011;37421;51.176;17.196;2022-11-15T01:40:11;0.52;;;0.20;;
51336;SDS011;37421;51.176;17.196;2022-11-15T01:42:36;0.30;;;0.15;;
51336;SDS011;37421;51.176;17.196;2022-11-15T01:45:04;0.10;;;0.00;;
51336;SDS011;37421;51.176;17.196;2022-11-15T01:47:31;0.45;;;0.30;;
51336;SDS011;37421;51.176;17.196;2022-11-15T01:50:09;0.38;;;0.20;;
51336;SDS011;37421;51.176;17.196;2022-11-15T01:52:42;0.75;;;0.20;;
51336;SDS011;37421;51.176;17.196;2022-11-15T01:55:13;1.15;;;0.30;;
51336;SDS011;37421;51.176;17.196;2022-11-15T01:57:53;0.40;;;0.30;;
51336;SDS011;37421;51.176;17.196;2022-11-15T02:00:23;0.28;;;0.22;;
51336;SDS011;37421;51.176;17.196;2022-11-15T02:02:49;0.10;;;0.10;;
51336;SDS011;37421;51.176;17.196;2022-11-15T02:05:29;0.20;;;0.20;;
51336;SDS011;37421;51.176;17.196;2022-11-15T02:07:56;0.20;;;0.10;;
51336;SDS011;37421;51.176;17.196;2022-11-15T02:10:23;0.30;;;0.10;;
51336;SDS011;37421;51.176;17.196;2022-11-15T02:12:52;0.65;;;0.30;;
51336;SDS011;37421;51.176;17.196;2022-11-15T02:15:21;0.10;;;0.10;;
51336;SDS011;37421;51.176;17.196;2022-11-15T02:17:55;0.47;;;0.20;;
51336;SDS011;37421;51.176;17.196;2022-11-15T02:29:06;0.52;;;0.25;;
51336;SDS011;37421;51.176;17.196;2022-11-15T02:31:53;0.45;;;0.30;;
51336;SDS011;37421;51.176;17.196;2022-11-15T02:37:44;0.40;;;0.20;;
51336;SDS011;37421;51.176;17.196;2022-11-15T02:40:27;0.35;;;0.20;;
51336;SDS011;37421;51.176;17.196;2022-11-15T02:43:04;0.45;;;0.28;;
51336;SDS011;37421;51.176;17.196;2022-11-15T02:45:58;0.50;;;0.30;;
51336;SDS011;37421;51.176;17.196;2022-11-15T02:48:29;0.43;;;0.20;;
51336;SDS011;37421;51.176;17.196;2022-11-15T02:51:15;0.77;;;0.20;;
51336;SDS011;37421;51.176;17.196;2022-11-15T02:53:44;0.43;;;0.17;;
51336;SDS011;37421;51.176;17.196;2022-11-15T02:56:15;1.75;;;0.30;;
51336;SDS011;37421;51.176;17.196;2022-11-15T03:07:09;0.82;;;0.30;;
51336;SDS011;37421;51.176;17.196;2022-11-15T03:09:42;0.50;;;0.28;;
51336;SDS011;37421;51.176;17.196;2022-11-15T03:12:20;0.65;;;0.30;;
51336;SDS011;37421;51.176;17.196;2022-11-15T03:15:05;0.40;;;0.25;;
51336;SDS011;37421;51.176;17.196;2022-11-15T03:17:38;0.88;;;0.30;;
51336;SDS011;37421;51.176;17.196;2022-11-15T03:20:13;0.47;;;0.28;;
51336;SDS011;37421;51.176;17.196;2022-11-15T03:22:45;0.28;;;0.28;;
51336;SDS011;37421;51.176;17.196;2022-11-15T03:25:19;0.40;;;0.30;;
51336;SDS011;37421;51.176;17.196;2022-11-15T03:27:53;0.30;;;0.20;;
51336;SDS011;37421;51.176;17.196;2022-11-15T03:30:23;0.28;;;0.20;;
51336;SDS011;37421;51.176;17.196;2022-11-15T03:32:56;0.75;;;0.30;;
51336;SDS011;37421;51.176;17.196;2022-11-15T03:35:24;0.65;;;0.28;;
51336;SDS011;37421;51.176;17.196;2022-11-15T03:38:17;0.22;;;0.15;;
51336;SDS011;37421;51.176;17.196;2022-11-15T03:40:47;0.50;;;0.25;;
51336;SDS011;37421;51.176;17.196;2022-11-15T03:43:42;0.40;;;0.20;;
51336;SDS011;37421;51.176;17.196;2022-11-15T03:46:25;0.10;;;0.10;;
51336;SDS011;37421;51.176;17.196;2022-11-15T03:49:00;0.10;;;0.10;;
51336;SDS011;37421;51.176;17.196;2022-11-15T03:51:37;0.30;;;0.20;;
51336;SDS011;37421;51.176;17.196;2022-11-15T03:54:04;0.13;;;0.13;;
51336;SDS011;37421;51.176;17.196;2022-11-15T03:56:33;0.35;;;0.20;;
51336;SDS011;37421;51.176;17.196;2022-11-15T03:59:02;0.40;;;0.25;;
51336;SDS011;37421;51.176;17.196;2022-11-15T04:01:28;0.85;;;0.10;;
51336;SDS011;37421;51.176;17.196;2022-11-15T04:03:54;0.57;;;0.30;;
51336;SDS011;37421;51.176;17.196;2022-11-15T04:06:26;0.20;;;0.15;;
51336;SDS011;37421;51.176;17.196;2022-11-15T04:08:52;0.10;;;0.10;;
51336;SDS011;37421;51.176;17.196;2022-11-15T04:11:21;0.50;;;0.30;;
51336;SDS011;37421;51.176;17.196;2022-11-15T04:13:49;0.20;;;0.10;;
51336;SDS011;37421;51.176;17.196;2022-11-15T04:16:18;0.30;;;0.20;;
51336;SDS011;37421;51.176;17.196;2022-11-15T04:18:47;0.30;;;0.20;;
51336;SDS011;37421;51.176;17.196;2022-11-15T04:21:35;0.30;;;0.30;;
51336;SDS011;37421;51.176;17.196;2022-11-15T04:24:19;0.20;;;0.20;;
51336;SDS011;37421;51.176;17.196;2022-11-15T04:26:47;0.43;;;0.22;;
51336;SDS011;37421;51.176;17.196;2022-11-15T04:29:16;0.75;;;0.30;;
51336;SDS011;37421;51.176;17.196;2022-11-15T04:32:01;0.20;;;0.10;;
51336;SDS011;37421;51.176;17.196;2022-11-15T04:34:27;0.10;;;0.10;;
51336;SDS011;37421;51.176;17.196;2022-11-15T04:36:53;0.20;;;0.20;;
51336;SDS011;37421;51.176;17.196;2022-11-15T04:44:44;0.40;;;0.32;;
51336;SDS011;37421;51.176;17.196;2022-11-15T04:47:09;0.50;;;0.22;;
51336;SDS011;37421;51.176;17.196;2022-11-15T04:49:38;0.68;;;0.30;;
51336;SDS011;37421;51.176;17.196;2022-11-15T04:52:09;0.50;;;0.20;;
51336;SDS011;37421;51.176;17.196;2022-11-15T04:54:38;0.17;;;0.17;;
51336;SDS011;37421;51.176;17.196;2022-11-15T04:57:07;0.10;;;0.10;;
51336;SDS011;37421;51.176;17.196;2022-11-15T04:59:37;0.28;;;0.20;;
51336;SDS011;37421;51.176;17.196;2022-11-15T05:02:06;1.08;;;0.20;;
51336;SDS011;37421;51.176;17.196;2022-11-15T05:04:41;0.30;;;0.20;;
51336;SDS011;37421;51.176;17.196;2022-11-15T05:07:10;0.20;;;0.20;;
51336;SDS011;37421;51.176;17.196;2022-11-15T05:09:36;0.60;;;0.22;;
51336;SDS011;37421;51.176;17.196;2022-11-15T05:12:05;0.20;;;0.17;;
51336;SDS011;37421;51.176;17.196;2022-11-15T05:14:38;0.32;;;0.20;;
51336;SDS011;37421;51.176;17.196;2022-11-15T05:17:04;0.20;;;0.20;;
51336;SDS011;37421;51.176;17.196;2022-11-15T05:19:33;0.22;;;0.20;;
51336;SDS011;37421;51.176;17.196;2022-11-15T05:22:02;0.75;;;0.20;;
51336;SDS011;37421;51.176;17.196;2022-11-15T05:24:32;0.20;;;0.10;;
51336;SDS011;37421;51.176;17.196;2022-11-15T05:26:59;0.22;;;0.13;;
51336;SDS011;37421;51.176;17.196;2022-11-15T05:29:27;0.28;;;0.20;;
51336;SDS011;37421;51.176;17.196;2022-11-15T05:32:03;0.43;;;0.20;;
51336;SDS011;37421;51.176;17.196;2022-11-15T05:34:31;0.52;;;0.10;;
51336;SDS011;37421;51.176;17.196;2022-11-15T05:37:02;0.35;;;0.30;;
51336;SDS011;37421;51.176;17.196;2022-11-15T05:39:31;0.25;;;0.20;;
51336;SDS011;37421;51.176;17.196;2022-11-15T05:42:00;0.47;;;0.20;;
51336;SDS011;37421;51.176;17.196;2022-11-15T05:44:35;0.50;;;0.35;;
51336;SDS011;37421;51.176;17.196;2022-11-15T05:47:03;0.40;;;0.30;;
51336;SDS011;37421;51.176;17.196;2022-11-15T05:49:37;0.25;;;0.20;;
51336;SDS011;37421;51.176;17.196;2022-11-15T05:52:08;0.20;;;0.10;;
51336;SDS011;37421;51.176;17.196;2022-11-15T05:54:49;0.10;;;0.00;;
51336;SDS011;37421;51.176;17.196;2022-11-15T05:57:17;0.50;;;0.20;;
51336;SDS011;37421;51.176;17.196;2022-11-15T05:59:44;0.20;;;0.20;;
51336;SDS011;37421;51.176;17.196;2022-11-15T06:02:10;0.68;;;0.25;;
51336;SDS011;37421;51.176;17.196;2022-11-15T06:04:39;0.52;;;0.20;;
51336;SDS011;37421;51.176;17.196;2022-11-15T06:07:12;0.63;;;0.10;;
51336;SDS011;37421;51.176;17.196;2022-11-15T06:09:42;0.38;;;0.20;;
51336;SDS011;37421;51.176;17.196;2022-11-15T06:12:14;0.22;;;0.20;;
51336;SDS011;37421;51.176;17.196;2022-11-15T06:14:43;0.10;;;0.10;;
51336;SDS011;37421;51.176;17.196;2022-11-15T06:17:09;0.10;;;0.10;;
51336;SDS011;37421;51.176;17.196;2022-11-15T06:20:28;0.20;;;0.20;;
51336;SDS011;37421;51.176;17.196;2022-11-15T06:22:38;0.20;;;0.17;;
51336;SDS011;37421;51.176;17.196;2022-11-15T06:25:09;0.15;;;0.10;;
51336;SDS011;37421;51.176;17.196;2022-11-15T06:27:38;0.43;;;0.10;;
51336;SDS011;37421;51.176;17.196;2022-11-15T06:30:29;0.43;;;0.20;;
51336;SDS011;37421;51.176;17.196;2022-11-15T06:33:12;0.10;;;0.10;;
51336;SDS011;37421;51.176;17.196;2022-11-15T06:35:45;0.40;;;0.22;;
51336;SDS011;37421;51.176;17.196;2022-11-15T06:38:24;0.20;;;0.17;;
51336;SDS011;37421;51.176;17.196;2022-11-15T06:41:00;0.03;;;0.03;;
51336;SDS011;37421;51.176;17.196;2022-11-15T06:43:42;0.17;;;0.10;;
51336;SDS011;37421;51.176;17.196;2022-11-15T06:46:11;0.05;;;0.00;;
51336;SDS011;37421;51.176;17.196;2022-11-15T06:48:41;0.10;;;0.08;;
51336;SDS011;37421;51.176;17.196;2022-11-15T06:51:12;0.70;;;0.20;;
51336;SDS011;37421;51.176;17.196;2022-11-15T06:53:44;0.10;;;0.10;;
51336;SDS011;37421;51.176;17.196;2022-11-15T06:56:27;0.40;;;0.15;;
51336;SDS011;37421;51.176;17.196;2022-11-15T06:58:59;0.10;;;0.08;;
51336;SDS011;37421;51.176;17.196;2022-11-15T07:01:41;0.10;;;0.08;;
51336;SDS011;37421;51.176;17.196;2022-11-15T07:04:07;0.10;;;0.10;;
51336;SDS011;37421;51.176;17.196;2022-11-15T07:06:36;0.10;;;0.10;;
51336;SDS011;37421;51.176;17.196;2022-11-15T07:09:06;0.17;;;0.10;;
51336;SDS011;37421;51.176;17.196;2022-11-15T07:11:46;0.20;;;0.10;;
51336;SDS011;37421;51.176;17.196;2022-11-15T07:14:42;0.15;;;0.08;;
51336;SDS011;37421;51.176;17.196;2022-11-15T07:17:11;0.20;;;0.10;;
51336;SDS011;37421;51.176;17.196;2022-11-15T07:19:45;0.10;;;0.00;;
51336;SDS011;37421;51.176;17.196;2022-11-15T07:22:35;0.10;;;0.10;;
51336;SDS011;37421;51.176;17.196;2022-11-15T07:25:07;0.10;;;0.00;;
51336;SDS011;37421;51.176;17.196;2022-11-15T07:27:53;0.25;;;0.10;;
51336;SDS011;37421;51.176;17.196;2022-11-15T07:30:43;0.10;;;0.10;;
51336;SDS011;37421;51.176;17.196;2022-11-15T07:36:40;0.10;;;0.10;;
51336;SDS011;37421;51.176;17.196;2022-11-15T07:39:12;0.10;;;0.05;;
51336;SDS011;37421;51.176;17.196;2022-11-15T07:41:44;0.10;;;0.05;;
51336;SDS011;37421;51.176;17.196;2022-11-15T07:44:33;0.00;;;0.00;;
51336;SDS011;37421;51.176;17.196;2022-11-15T07:47:05;0.05;;;0.05;;
51336;SDS011;37421;51.176;17.196;2022-11-15T07:49:46;0.13;;;0.10;;
51336;SDS011;37421;51.176;17.196;2022-11-15T07:52:40;0.20;;;0.10;;
51336;SDS011;37421;51.176;17.196;2022-11-15T07:55:12;0.30;;;0.10;;
51336;SDS011;37421;51.176;17.196;2022-11-15T07:58:22;0.20;;;0.20;;
51336;SDS011;37421;51.176;17.196;2022-11-15T08:01:06;0.17;;;0.10;;
51336;SDS011;37421;51.176;17.196;2022-11-15T08:39:02;0.10;;;0.03;;
51336;SDS011;37421;51.176;17.196;2022-11-15T08:41:36;0.20;;;0.15;;
51336;SDS011;37421;51.176;17.196;2022-11-15T08:50:03;0.30;;;0.10;;
51336;SDS011;37421;51.176;17.196;2022-11-15T08:52:38;2.95;;;0.10;;
51336;SDS011;37421;51.176;17.196;2022-11-15T08:55:25;0.10;;;0.10;;
51336;SDS011;37421;51.176;17.196;2022-11-15T08:58:05;0.00;;;0.00;;
51336;SDS011;37421;51.176;17.196;2022-11-15T09:01:13;0.08;;;0.00;;
51336;SDS011;37421;51.176;17.196;2022-11-15T09:03:49;0.10;;;0.00;;
51336;SDS011;37421;51.176;17.196;2022-11-15T09:06:32;1.45;;;0.80;;
51336;SDS011;37421;51.176;17.196;2022-11-15T09:09:13;0.68;;;0.10;;
51336;SDS011;37421;51.176;17.196;2022-11-15T09:12:02;0.35;;;0.30;;
51336;SDS011;37421;51.176;17.196;2022-11-15T09:14:51;0.15;;;0.13;;
51336;SDS011;37421;51.176;17.196;2022-11-15T09:17:31;0.10;;;0.10;;
51336;SDS011;37421;51.176;17.196;2022-11-15T09:23:01;0.00;;;0.00;;
51336;SDS011;37421;51.176;17.196;2022-11-15T09:26:02;0.10;;;0.10;;
51336;SDS011;37421;51.176;17.196;2022-11-15T09:28:58;0.10;;;0.10;;
51336;SDS011;37421;51.176;17.196;2022-11-15T09:37:47;0.00;;;0.00;;
51336;SDS011;37421;51.176;17.196;2022-11-15T09:40:14;0.20;;;0.10;;
51336;SDS011;37421;51.176;17.196;2022-11-15T09:46:04;0.15;;;0.00;;
51336;SDS011;37421;51.176;17.196;2022-11-15T09:48:59;0.10;;;0.10;;
51336;SDS011;37421;51.176;17.196;2022-11-15T09:54:32;0.00;;;0.00;;
51336;SDS011;37421;51.176;17.196;2022-11-15T10:03:27;0.57;;;0.10;;
51336;SDS011;37421;51.176;17.196;2022-11-15T10:06:26;0.10;;;0.00;;
51336;SDS011;37421;51.176;17.196;2022-11-15T10:09:22;0.10;;;0.10;;
51336;SDS011;37421;51.176;17.196;2022-11-15T10:12:00;0.00;;;0.00;;
51336;SDS011;37421;51.176;17.196;2022-11-15T10:14:51;0.00;;;0.00;;
51336;SDS011;37421;51.176;17.196;2022-11-15T10:20:48;0.28;;;0.05;;
51336;SDS011;37421;51.176;17.196;2022-11-15T10:23:36;0.00;;;0.00;;
51336;SDS011;37421;51.176;17.196;2022-11-15T10:26:04;0.17;;;0.00;;
51336;SDS011;37421;51.176;17.196;2022-11-15T10:28:42;0.00;;;0.00;;
51336;SDS011;37421;51.176;17.196;2022-11-15T10:31:31;0.30;;;0.10;;
51336;SDS011;37421;51.176;17.196;2022-11-15T10:34:18;0.00;;;0.00;;
51336;SDS011;37421;51.176;17.196;2022-11-15T10:36:47;0.10;;;0.00;;
51336;SDS011;37421;51.176;17.196;2022-11-15T10:40:34;0.22;;;0.00;;
51336;SDS011;37421;51.176;17.196;2022-11-15T10:43:12;0.40;;;0.10;;
51336;SDS011;37421;51.176;17.196;2022-11-15T10:48:51;0.00;;;0.00;;
51336;SDS011;37421;51.176;17.196;2022-11-15T10:58:43;0.20;;;0.10;;
51336;SDS011;37421;51.176;17.196;2022-11-15T11:01:28;0.03;;;0.00;;
51336;SDS011;37421;51.176;17.196;2022-11-15T11:04:10;0.00;;;0.00;;
51336;SDS011;37421;51.176;17.196;2022-11-15T11:10:20;0.08;;;0.08;;
51336;SDS011;37421;51.176;17.196;2022-11-15T11:12:53;0.10;;;0.10;;
51336;SDS011;37421;51.176;17.196;2022-11-15T11:15:24;0.00;;;0.00;;
51336;SDS011;37421;51.176;17.196;2022-11-15T11:18:07;0.00;;;0.00;;
51336;SDS011;37421;51.176;17.196;2022-11-15T11:21:18;0.10;;;0.10;;
51336;SDS011;37421;51.176;17.196;2022-11-15T11:24:10;0.20;;;0.00;;
51336;SDS011;37421;51.176;17.196;2022-11-15T11:29:41;0.30;;;0.13;;
51336;SDS011;37421;51.176;17.196;2022-11-15T11:33:00;0.00;;;0.00;;
51336;SDS011;37421;51.176;17.196;2022-11-15T11:48:53;0.00;;;0.00;;
51336;SDS011;37421;51.176;17.196;2022-11-15T11:55:13;0.00;;;0.00;;
51336;SDS011;37421;51.176;17.196;2022-11-15T12:05:43;0.10;;;0.00;;
51336;SDS011;37421;51.176;17.196;2022-11-15T12:11:17;0.00;;;0.00;;
51336;SDS011;37421;51.176;17.196;2022-11-15T12:13:43;0.00;;;0.00;;
51336;SDS011;37421;51.176;17.196;2022-11-15T12:16:38;0.15;;;0.00;;
51336;SDS011;37421;51.176;17.196;2022-11-15T12:19:20;0.30;;;0.00;;
51336;SDS011;37421;51.176;17.196;2022-11-15T12:22:08;0.00;;;0.00;;
51336;SDS011;37421;51.176;17.196;2022-11-15T12:28:15;0.00;;;0.00;;
51336;SDS011;37421;51.176;17.196;2022-11-15T12:30:23;0.00;;;0.00;;
51336;SDS011;37421;51.176;17.196;2022-11-15T12:41:32;0.20;;;0.00;;
51336;SDS011;37421;51.176;17.196;2022-11-15T12:44:03;0.00;;;0.00;;
51336;SDS011;37421;51.176;17.196;2022-11-15T12:47:04;0.20;;;0.00;;
51336;SDS011;37421;51.176;17.196;2022-11-15T13:06:02;0.00;;;0.00;;
51336;SDS011;37421;51.176;17.196;2022-11-15T13:18:30;0.05;;;0.00;;
51336;SDS011;37421;51.176;17.196;2022-11-15T13:24:38;0.20;;;0.10;;
51336;SDS011;37421;51.176;17.196;2022-11-15T13:27:17;0.40;;;0.10;;
51336;SDS011;37421;51.176;17.196;2022-11-15T13:29:59;0.15;;;0.15;;
51336;SDS011;37421;51.176;17.196;2022-11-15T13:32:25;0.40;;;0.20;;
51336;SDS011;37421;51.176;17.196;2022-11-15T13:34:51;0.35;;;0.20;;
51336;SDS011;37421;51.176;17.196;2022-11-15T13:37:29;0.80;;;0.30;;
51336;SDS011;37421;51.176;17.196;2022-11-15T13:39:57;0.45;;;0.30;;
51336;SDS011;37421;51.176;17.196;2022-11-15T13:42:56;0.30;;;0.30;;
51336;SDS011;37421;51.176;17.196;2022-11-15T13:45:39;1.42;;;0.35;;
51336;SDS011;37421;51.176;17.196;2022-11-15T13:48:22;0.40;;;0.40;;
51336;SDS011;37421;51.176;17.196;2022-11-15T13:50:48;0.30;;;0.30;;
51336;SDS011;37421;51.176;17.196;2022-11-15T13:53:18;0.38;;;0.38;;
51336;SDS011;37421;51.176;17.196;2022-11-15T13:55:53;0.20;;;0.20;;
51336;SDS011;37421;51.176;17.196;2022-11-15T13:58:22;0.30;;;0.30;;
51336;SDS011;37421;51.176;17.196;2022-11-15T14:01:06;0.40;;;0.28;;
51336;SDS011;37421;51.176;17.196;2022-11-15T14:03:41;0.57;;;0.40;;
51336;SDS011;37421;51.176;17.196;2022-11-15T14:06:50;0.55;;;0.40;;
51336;SDS011;37421;51.176;17.196;2022-11-15T14:09:33;1.67;;;0.52;;
51336;SDS011;37421;51.176;17.196;2022-11-15T14:12:36;0.60;;;0.45;;
51336;SDS011;37421;51.176;17.196;2022-11-15T14:18:38;0.50;;;0.40;;
51336;SDS011;37421;51.176;17.196;2022-11-15T14:21:28;0.60;;;0.47;;
51336;SDS011;37421;51.176;17.196;2022-11-15T14:24:19;0.63;;;0.43;;
51336;SDS011;37421;51.176;17.196;2022-11-15T14:29:54;0.80;;;0.50;;
51336;SDS011;37421;51.176;17.196;2022-11-15T14:32:28;0.70;;;0.45;;
51336;SDS011;37421;51.176;17.196;2022-11-15T14:35:15;0.82;;;0.50;;
51336;SDS011;37421;51.176;17.196;2022-11-15T14:37:54;0.30;;;0.30;;
51336;SDS011;37421;51.176;17.196;2022-11-15T14:40:29;0.38;;;0.30;;
51336;SDS011;37421;51.176;17.196;2022-11-15T14:43:09;0.25;;;0.20;;
51336;SDS011;37421;51.176;17.196;2022-11-15T14:45:44;0.40;;;0.40;;
51336;SDS011;37421;51.176;17.196;2022-11-15T14:48:12;0.50;;;0.50;;
51336;SDS011;37421;51.176;17.196;2022-11-15T14:50:41;0.60;;;0.50;;
51336;SDS011;37421;51.176;17.196;2022-11-15T14:53:19;0.90;;;0.60;;
51336;SDS011;37421;51.176;17.196;2022-11-15T14:56:11;0.90;;;0.50;;
51336;SDS011;37421;51.176;17.196;2022-11-15T14:58:45;0.70;;;0.32;;
51336;SDS011;37421;51.176;17.196;2022-11-15T15:01:27;0.85;;;0.40;;
51336;SDS011;37421;51.176;17.196;2022-11-15T15:03:58;0.47;;;0.40;;
51336;SDS011;37421;51.176;17.196;2022-11-15T15:06:27;0.70;;;0.52;;
51336;SDS011;37421;51.176;17.196;2022-11-15T15:09:09;0.70;;;0.50;;
51336;SDS011;37421;51.176;17.196;2022-11-15T15:14:38;0.80;;;0.57;;
51336;SDS011;37421;51.176;17.196;2022-11-15T15:17:11;0.82;;;0.60;;
51336;SDS011;37421;51.176;17.196;2022-11-15T15:20:03;0.65;;;0.55;;
51336;SDS011;37421;51.176;17.196;2022-11-15T15:22:38;0.70;;;0.50;;
51336;SDS011;37421;51.176;17.196;2022-11-15T15:25:18;0.68;;;0.57;;
51336;SDS011;37421;51.176;17.196;2022-11-15T15:27:54;0.60;;;0.47;;
51336;SDS011;37421;51.176;17.196;2022-11-15T15:30:21;0.60;;;0.40;;
51336;SDS011;37421;51.176;17.196;2022-11-15T15:32:59;1.77;;;0.40;;
51336;SDS011;37421;51.176;17.196;2022-11-15T15:35:28;0.40;;;0.40;;
51336;SDS011;37421;51.176;17.196;2022-11-15T15:38:11;1.10;;;0.68;;
51336;SDS011;37421;51.176;17.196;2022-11-15T15:40:42;0.77;;;0.60;;
51336;SDS011;37421;51.176;17.196;2022-11-15T15:43:19;0.70;;;0.52;;
51336;SDS011;37421;51.176;17.196;2022-11-15T15:49:01;0.40;;;0.40;;
51336;SDS011;37421;51.176;17.196;2022-11-15T15:51:30;1.17;;;0.60;;
51336;SDS011;37421;51.176;17.196;2022-11-15T15:54:12;0.80;;;0.60;;
51336;SDS011;37421;51.176;17.196;2022-11-15T16:00:04;0.20;;;0.20;;
51336;SDS011;37421;51.176;17.196;2022-11-15T16:03:09;0.30;;;0.20;;
51336;SDS011;37421;51.176;17.196;2022-11-15T16:05:50;0.47;;;0.30;;
51336;SDS011;37421;51.176;17.196;2022-11-15T16:08:20;0.63;;;0.40;;
51336;SDS011;37421;51.176;17.196;2022-11-15T16:10:54;0.60;;;0.35;;
51336;SDS011;37421;51.176;17.196;2022-11-15T16:16:50;0.95;;;0.70;;
51336;SDS011;37421;51.176;17.196;2022-11-15T16:25:28;0.90;;;0.80;;
51336;SDS011;37421;51.176;17.196;2022-11-15T16:31:27;1.27;;;0.70;;
51336;SDS011;37421;51.176;17.196;2022-11-15T16:33:53;1.00;;;0.80;;
51336;SDS011;37421;51.176;17.196;2022-11-15T16:36:35;1.20;;;0.98;;
51336;SDS011;37421;51.176;17.196;2022-11-15T16:39:09;0.82;;;0.57;;
51336;SDS011;37421;51.176;17.196;2022-11-15T16:41:43;0.88;;;0.70;;
51336;SDS011;37421;51.176;17.196;2022-11-15T16:46:38;0.98;;;0.80;;
51336;SDS011;37421;51.176;17.196;2022-11-15T16:49:39;1.45;;;0.95;;
51336;SDS011;37421;51.176;17.196;2022-11-15T16:52:29;0.82;;;0.65;;
51336;SDS011;37421;51.176;17.196;2022-11-15T16:57:51;0.88;;;0.70;;
51336;SDS011;37421;51.176;17.196;2022-11-15T17:00:45;1.52;;;1.02;;
51336;SDS011;37421;51.176;17.196;2022-11-15T17:03:46;1.25;;;1.00;;
51336;SDS011;37421;51.176;17.196;2022-11-15T17:06:53;1.17;;;1.00;;
51336;SDS011;37421;51.176;17.196;2022-11-15T17:09:42;1.23;;;0.80;;
51336;SDS011;37421;51.176;17.196;2022-11-15T17:12:15;0.85;;;0.50;;
51336;SDS011;37421;51.176;17.196;2022-11-15T17:14:55;1.73;;;0.63;;
51336;SDS011;37421;51.176;17.196;2022-11-15T17:27:39;1.27;;;0.60;;
51336;SDS011;37421;51.176;17.196;2022-11-15T17:30:09;0.50;;;0.50;;
51336;SDS011;37421;51.176;17.196;2022-11-15T17:32:52;0.77;;;0.60;;
51336;SDS011;37421;51.176;17.196;2022-11-15T17:35:37;1.75;;;0.47;;
51336;SDS011;37421;51.176;17.196;2022-11-15T17:38:49;0.40;;;0.20;;
51336;SDS011;37421;51.176;17.196;2022-11-15T17:41:45;0.30;;;0.30;;
51336;SDS011;37421;51.176;17.196;2022-11-15T17:44:40;0.47;;;0.35;;
51336;SDS011;37421;51.176;17.196;2022-11-15T17:56:56;0.65;;;0.43;;
51336;SDS011;37421;51.176;17.196;2022-11-15T18:00:00;0.85;;;0.70;;
51336;SDS011;37421;51.176;17.196;2022-11-15T18:05:36;0.80;;;0.65;;
51336;SDS011;37421;51.176;17.196;2022-11-15T18:08:21;0.60;;;0.50;;
51336;SDS011;37421;51.176;17.196;2022-11-15T18:11:26;0.82;;;0.52;;
51336;SDS011;37421;51.176;17.196;2022-11-15T18:14:00;0.77;;;0.60;;
51336;SDS011;37421;51.176;17.196;2022-11-15T18:16:47;1.17;;;0.80;;
51336;SDS011;37421;51.176;17.196;2022-11-15T18:19:20;1.85;;;1.15;;
51336;SDS011;37421;51.176;17.196;2022-11-15T18:21:54;2.20;;;1.20;;
51336;SDS011;37421;51.176;17.196;2022-11-15T18:24:32;2.17;;;1.40;;
51336;SDS011;37421;51.176;17.196;2022-11-15T18:27:08;2.58;;;1.85;;
51336;SDS011;37421;51.176;17.196;2022-11-15T18:29:34;1.60;;;1.20;;
51336;SDS011;37421;51.176;17.196;2022-11-15T18:32:02;2.50;;;1.63;;
51336;SDS011;37421;51.176;17.196;2022-11-15T18:34:35;1.30;;;1.20;;
51336;SDS011;37421;51.176;17.196;2022-11-15T18:37:01;1.33;;;1.08;;
51336;SDS011;37421;51.176;17.196;2022-11-15T18:39:28;1.23;;;0.90;;
51336;SDS011;37421;51.176;17.196;2022-11-15T18:41:54;0.80;;;0.70;;
51336;SDS011;37421;51.176;17.196;2022-11-15T18:44:29;1.50;;;0.80;;
51336;SDS011;37421;51.176;17.196;2022-11-15T18:46:59;2.65;;;0.75;;
51336;SDS011;37421;51.176;17.196;2022-11-15T18:52:36;1.20;;;0.80;;
51336;SDS011;37421;51.176;17.196;2022-11-15T18:55:42;0.85;;;0.55;;
51336;SDS011;37421;51.176;17.196;2022-11-15T18:58:08;0.75;;;0.52;;
51336;SDS011;37421;51.176;17.196;2022-11-15T19:00:34;1.33;;;0.77;;
51336;SDS011;37421;51.176;17.196;2022-11-15T19:03:00;0.73;;;0.57;;
51336;SDS011;37421;51.176;17.196;2022-11-15T19:05:28;0.60;;;0.50;;
51336;SDS011;37421;51.176;17.196;2022-11-15T19:07:54;0.75;;;0.68;;
51336;SDS011;37421;51.176;17.196;2022-11-15T19:10:23;0.70;;;0.60;;
51336;SDS011;37421;51.176;17.196;2022-11-15T19:12:53;0.77;;;0.50;;
51336;SDS011;37421;51.176;17.196;2022-11-15T19:15:19;0.98;;;0.70;;
51336;SDS011;37421;51.176;17.196;2022-11-15T19:17:57;0.75;;;0.60;;
51336;SDS011;37421;51.176;17.196;2022-11-15T19:20:25;0.60;;;0.50;;
51336;SDS011;37421;51.176;17.196;2022-11-15T19:23:04;0.55;;;0.55;;
51336;SDS011;37421;51.176;17.196;2022-11-15T19:25:51;0.82;;;0.60;;
51336;SDS011;37421;51.176;17.196;2022-11-15T19:28:25;0.63;;;0.50;;